sensor_id;sensor_type;location;lat;lon;timestamp;P1;durP1;ratioP1;P2;durP2;ratioP2
8978;SDS011;4524;51.364;5.448;2022-10-04T00:01:05;11.87;;;8.20;;
8978;SDS011;4524;51.364;5.448;2022-10-04T00:03:36;10.63;;;7.93;;
8978;SDS011;4524;51.364;5.448;2022-10-04T00:06:14;15.00;;;8.77;;
8978;SDS011;4524;51.364;5.448;2022-10-04T00:08:46;12.37;;;8.93;;
8978;SDS011;4524;51.364;5.448;2022-10-04T00:11:19;12.53;;;8.30;;
8978;SDS011;4524;51.364;5.448;2022-10-04T00:13:53;9.73;;;8.30;;
8978;SDS011;4524;51.364;5.448;2022-10-04T00:16:25;13.60;;;8.50;;
8978;SDS011;4524;51.364;5.448;2022-10-04T00:19:00;11.90;;;8.53;;
8978;SDS011;4524;51.364;5.448;2022-10-04T00:31:10;13.77;;;9.67;;
8978;SDS011;4524;51.364;5.448;2022-10-04T00:33:48;16.37;;;10.27;;
8978;SDS011;4524;51.364;5.448;2022-10-04T00:36:30;15.73;;;9.37;;
8978;SDS011;4524;51.364;5.448;2022-10-04T00:39:17;12.57;;;8.53;;
8978;SDS011;4524;51.364;5.448;2022-10-04T00:42:21;9.57;;;8.30;;
8978;SDS011;4524;51.364;5.448;2022-10-04T00:45:14;9.53;;;8.03;;
8978;SDS011;4524;51.364;5.448;2022-10-04T00:47:59;12.10;;;8.20;;
8978;SDS011;4524;51.364;5.448;2022-10-04T00:50:47;12.30;;;8.43;;
8978;SDS011;4524;51.364;5.448;2022-10-04T00:53:19;12.30;;;7.93;;
8978;SDS011;4524;51.364;5.448;2022-10-04T00:55:51;13.40;;;7.90;;
8978;SDS011;4524;51.364;5.448;2022-10-04T00:58:23;12.50;;;8.20;;
8978;SDS011;4524;51.364;5.448;2022-10-04T01:01:09;11.97;;;9.67;;
8978;SDS011;4524;51.364;5.448;2022-10-04T01:03:39;12.30;;;7.70;;
8978;SDS011;4524;51.364;5.448;2022-10-04T01:06:10;15.70;;;8.53;;
8978;SDS011;4524;51.364;5.448;2022-10-04T01:08:39;12.40;;;9.60;;
8978;SDS011;4524;51.364;5.448;2022-10-04T01:11:12;10.47;;;7.53;;
8978;SDS011;4524;51.364;5.448;2022-10-04T01:13:44;12.77;;;8.70;;
8978;SDS011;4524;51.364;5.448;2022-10-04T01:16:17;14.53;;;7.93;;
8978;SDS011;4524;51.364;5.448;2022-10-04T01:18:47;9.97;;;7.47;;
8978;SDS011;4524;51.364;5.448;2022-10-04T01:21:22;10.20;;;7.13;;
8978;SDS011;4524;51.364;5.448;2022-10-04T01:24:14;10.53;;;7.90;;
8978;SDS011;4524;51.364;5.448;2022-10-04T01:26:43;9.27;;;7.67;;
8978;SDS011;4524;51.364;5.448;2022-10-04T01:29:13;12.47;;;8.00;;
8978;SDS011;4524;51.364;5.448;2022-10-04T01:31:43;9.87;;;7.97;;
8978;SDS011;4524;51.364;5.448;2022-10-04T01:34:13;10.70;;;8.83;;
8978;SDS011;4524;51.364;5.448;2022-10-04T01:36:43;11.53;;;8.83;;
8978;SDS011;4524;51.364;5.448;2022-10-04T01:39:14;8.13;;;7.33;;
8978;SDS011;4524;51.364;5.448;2022-10-04T01:41:45;14.83;;;8.30;;
8978;SDS011;4524;51.364;5.448;2022-10-04T01:44:23;9.17;;;7.90;;
8978;SDS011;4524;51.364;5.448;2022-10-04T01:46:57;9.57;;;8.40;;
8978;SDS011;4524;51.364;5.448;2022-10-04T01:49:28;11.03;;;9.03;;
8978;SDS011;4524;51.364;5.448;2022-10-04T01:51:59;10.27;;;8.20;;
8978;SDS011;4524;51.364;5.448;2022-10-04T01:54:35;10.40;;;8.73;;
8978;SDS011;4524;51.364;5.448;2022-10-04T01:57:10;14.27;;;9.40;;
8978;SDS011;4524;51.364;5.448;2022-10-04T01:59:42;12.00;;;9.60;;
8978;SDS011;4524;51.364;5.448;2022-10-04T02:02:18;9.23;;;8.13;;
8978;SDS011;4524;51.364;5.448;2022-10-04T02:04:50;13.63;;;8.93;;
8978;SDS011;4524;51.364;5.448;2022-10-04T02:07:21;16.37;;;10.93;;
8978;SDS011;4524;51.364;5.448;2022-10-04T02:09:55;11.30;;;9.33;;
8978;SDS011;4524;51.364;5.448;2022-10-04T02:12:25;12.07;;;10.00;;
8978;SDS011;4524;51.364;5.448;2022-10-04T02:14:57;11.63;;;8.73;;
8978;SDS011;4524;51.364;5.448;2022-10-04T02:17:28;12.93;;;9.20;;
8978;SDS011;4524;51.364;5.448;2022-10-04T02:19:58;11.97;;;10.37;;
8978;SDS011;4524;51.364;5.448;2022-10-04T02:22:28;10.33;;;8.40;;
8978;SDS011;4524;51.364;5.448;2022-10-04T02:24:58;12.60;;;9.30;;
8978;SDS011;4524;51.364;5.448;2022-10-04T02:27:27;11.43;;;8.73;;
8978;SDS011;4524;51.364;5.448;2022-10-04T02:29:59;12.00;;;8.93;;
8978;SDS011;4524;51.364;5.448;2022-10-04T02:32:29;13.83;;;9.23;;
8978;SDS011;4524;51.364;5.448;2022-10-04T02:35:15;13.07;;;8.67;;
8978;SDS011;4524;51.364;5.448;2022-10-04T02:37:44;10.67;;;8.80;;
8978;SDS011;4524;51.364;5.448;2022-10-04T02:40:16;10.87;;;9.27;;
8978;SDS011;4524;51.364;5.448;2022-10-04T02:42:49;11.93;;;8.17;;
8978;SDS011;4524;51.364;5.448;2022-10-04T02:45:26;10.33;;;8.10;;
8978;SDS011;4524;51.364;5.448;2022-10-04T02:48:00;11.97;;;7.83;;
8978;SDS011;4524;51.364;5.448;2022-10-04T02:50:32;14.03;;;8.27;;
8978;SDS011;4524;51.364;5.448;2022-10-04T02:53:08;12.87;;;8.30;;
8978;SDS011;4524;51.364;5.448;2022-10-04T02:55:46;12.03;;;8.67;;
8978;SDS011;4524;51.364;5.448;2022-10-04T02:58:16;10.80;;;7.87;;
8978;SDS011;4524;51.364;5.448;2022-10-04T03:00:47;9.77;;;8.37;;
8978;SDS011;4524;51.364;5.448;2022-10-04T03:03:18;11.87;;;7.30;;
8978;SDS011;4524;51.364;5.448;2022-10-04T03:05:55;11.50;;;7.93;;
8978;SDS011;4524;51.364;5.448;2022-10-04T03:08:28;12.93;;;8.17;;
8978;SDS011;4524;51.364;5.448;2022-10-04T03:10:59;10.37;;;7.40;;
8978;SDS011;4524;51.364;5.448;2022-10-04T03:13:30;11.57;;;7.83;;
8978;SDS011;4524;51.364;5.448;2022-10-04T03:15:59;9.50;;;7.73;;
8978;SDS011;4524;51.364;5.448;2022-10-04T03:18:27;9.97;;;7.30;;
8978;SDS011;4524;51.364;5.448;2022-10-04T03:20:57;11.63;;;7.87;;
8978;SDS011;4524;51.364;5.448;2022-10-04T03:23:28;10.33;;;7.60;;
8978;SDS011;4524;51.364;5.448;2022-10-04T03:26:00;14.37;;;8.20;;
8978;SDS011;4524;51.364;5.448;2022-10-04T03:28:32;11.73;;;7.50;;
8978;SDS011;4524;51.364;5.448;2022-10-04T03:31:03;11.30;;;7.93;;
8978;SDS011;4524;51.364;5.448;2022-10-04T03:33:32;10.43;;;7.50;;
8978;SDS011;4524;51.364;5.448;2022-10-04T03:36:00;11.73;;;8.27;;
8978;SDS011;4524;51.364;5.448;2022-10-04T03:38:28;11.00;;;7.70;;
8978;SDS011;4524;51.364;5.448;2022-10-04T03:41:02;13.20;;;8.23;;
8978;SDS011;4524;51.364;5.448;2022-10-04T03:43:30;11.63;;;7.20;;
8978;SDS011;4524;51.364;5.448;2022-10-04T03:46:00;11.93;;;7.43;;
8978;SDS011;4524;51.364;5.448;2022-10-04T03:48:31;10.43;;;7.27;;
8978;SDS011;4524;51.364;5.448;2022-10-04T03:51:02;11.33;;;7.37;;
8978;SDS011;4524;51.364;5.448;2022-10-04T03:53:34;13.67;;;7.70;;
8978;SDS011;4524;51.364;5.448;2022-10-04T03:56:10;10.23;;;7.50;;
8978;SDS011;4524;51.364;5.448;2022-10-04T03:58:39;9.90;;;7.97;;
8978;SDS011;4524;51.364;5.448;2022-10-04T04:01:12;9.53;;;7.50;;
8978;SDS011;4524;51.364;5.448;2022-10-04T04:03:53;9.27;;;7.03;;
8978;SDS011;4524;51.364;5.448;2022-10-04T04:06:25;10.87;;;7.53;;
8978;SDS011;4524;51.364;5.448;2022-10-04T04:09:00;8.97;;;6.73;;
8978;SDS011;4524;51.364;5.448;2022-10-04T04:11:33;9.23;;;6.20;;
8978;SDS011;4524;51.364;5.448;2022-10-04T04:14:03;13.23;;;8.00;;
8978;SDS011;4524;51.364;5.448;2022-10-04T04:16:35;11.00;;;7.17;;
8978;SDS011;4524;51.364;5.448;2022-10-04T04:19:05;13.77;;;8.18;;
8978;SDS011;4524;51.364;5.448;2022-10-04T04:21:38;8.23;;;7.10;;
8978;SDS011;4524;51.364;5.448;2022-10-04T04:24:11;12.03;;;7.40;;
8978;SDS011;4524;51.364;5.448;2022-10-04T04:26:51;9.20;;;6.80;;
8978;SDS011;4524;51.364;5.448;2022-10-04T04:29:23;10.37;;;7.23;;
8978;SDS011;4524;51.364;5.448;2022-10-04T04:31:57;12.33;;;7.10;;
8978;SDS011;4524;51.364;5.448;2022-10-04T04:34:29;13.13;;;7.57;;
8978;SDS011;4524;51.364;5.448;2022-10-04T04:36:59;9.13;;;6.73;;
8978;SDS011;4524;51.364;5.448;2022-10-04T04:39:29;12.93;;;7.20;;
8978;SDS011;4524;51.364;5.448;2022-10-04T04:42:12;15.17;;;7.40;;
8978;SDS011;4524;51.364;5.448;2022-10-04T04:44:47;12.47;;;7.37;;
8978;SDS011;4524;51.364;5.448;2022-10-04T04:47:27;10.30;;;7.17;;
8978;SDS011;4524;51.364;5.448;2022-10-04T04:50:02;11.23;;;6.63;;
8978;SDS011;4524;51.364;5.448;2022-10-04T04:52:32;10.77;;;7.23;;
8978;SDS011;4524;51.364;5.448;2022-10-04T04:55:01;8.97;;;6.63;;
8978;SDS011;4524;51.364;5.448;2022-10-04T04:57:31;8.47;;;6.20;;
8978;SDS011;4524;51.364;5.448;2022-10-04T05:00:00;12.00;;;6.20;;
8978;SDS011;4524;51.364;5.448;2022-10-04T05:02:29;7.90;;;5.87;;
8978;SDS011;4524;51.364;5.448;2022-10-04T05:05:16;9.93;;;7.07;;
8978;SDS011;4524;51.364;5.448;2022-10-04T05:07:46;7.57;;;5.93;;
8978;SDS011;4524;51.364;5.448;2022-10-04T05:10:19;12.10;;;6.43;;
8978;SDS011;4524;51.364;5.448;2022-10-04T05:12:54;10.77;;;6.20;;
8978;SDS011;4524;51.364;5.448;2022-10-04T05:15:25;8.40;;;6.60;;
8978;SDS011;4524;51.364;5.448;2022-10-04T05:17:53;8.40;;;6.50;;
8978;SDS011;4524;51.364;5.448;2022-10-04T05:20:21;10.63;;;6.00;;
8978;SDS011;4524;51.364;5.448;2022-10-04T05:22:49;8.03;;;6.37;;
8978;SDS011;4524;51.364;5.448;2022-10-04T05:25:21;9.73;;;6.20;;
8978;SDS011;4524;51.364;5.448;2022-10-04T05:27:55;11.27;;;6.57;;
8978;SDS011;4524;51.364;5.448;2022-10-04T05:30:29;9.77;;;6.70;;
8978;SDS011;4524;51.364;5.448;2022-10-04T05:33:06;10.50;;;6.40;;
8978;SDS011;4524;51.364;5.448;2022-10-04T05:35:41;11.43;;;7.03;;
8978;SDS011;4524;51.364;5.448;2022-10-04T05:38:16;10.47;;;6.03;;
8978;SDS011;4524;51.364;5.448;2022-10-04T05:40:54;9.93;;;6.53;;
8978;SDS011;4524;51.364;5.448;2022-10-04T05:43:31;12.07;;;6.67;;
8978;SDS011;4524;51.364;5.448;2022-10-04T05:46:16;10.33;;;6.73;;
8978;SDS011;4524;51.364;5.448;2022-10-04T05:48:48;11.23;;;6.40;;
8978;SDS011;4524;51.364;5.448;2022-10-04T05:51:20;10.03;;;6.50;;
8978;SDS011;4524;51.364;5.448;2022-10-04T05:53:50;9.37;;;6.00;;
8978;SDS011;4524;51.364;5.448;2022-10-04T05:56:22;10.20;;;6.33;;
8978;SDS011;4524;51.364;5.448;2022-10-04T05:59:20;9.50;;;5.97;;
8978;SDS011;4524;51.364;5.448;2022-10-04T06:02:00;7.97;;;6.30;;
8978;SDS011;4524;51.364;5.448;2022-10-04T06:04:46;10.10;;;5.73;;
8978;SDS011;4524;51.364;5.448;2022-10-04T06:07:23;8.00;;;6.13;;
8978;SDS011;4524;51.364;5.448;2022-10-04T06:10:03;9.20;;;6.13;;
8978;SDS011;4524;51.364;5.448;2022-10-04T06:12:54;10.63;;;6.77;;
8978;SDS011;4524;51.364;5.448;2022-10-04T06:15:37;7.63;;;5.90;;
8978;SDS011;4524;51.364;5.448;2022-10-04T06:18:24;9.97;;;6.77;;
8978;SDS011;4524;51.364;5.448;2022-10-04T06:21:14;10.47;;;6.37;;
8978;SDS011;4524;51.364;5.448;2022-10-04T06:23:47;11.83;;;5.83;;
8978;SDS011;4524;51.364;5.448;2022-10-04T06:26:20;8.37;;;6.23;;
8978;SDS011;4524;51.364;5.448;2022-10-04T06:28:52;9.70;;;6.07;;
8978;SDS011;4524;51.364;5.448;2022-10-04T06:31:36;11.00;;;6.60;;
8978;SDS011;4524;51.364;5.448;2022-10-04T06:34:29;9.73;;;6.70;;
8978;SDS011;4524;51.364;5.448;2022-10-04T06:37:16;9.63;;;6.27;;
8978;SDS011;4524;51.364;5.448;2022-10-04T06:40:18;10.37;;;6.20;;
8978;SDS011;4524;51.364;5.448;2022-10-04T06:43:07;13.50;;;5.63;;
8978;SDS011;4524;51.364;5.448;2022-10-04T06:45:46;8.20;;;6.17;;
8978;SDS011;4524;51.364;5.448;2022-10-04T06:48:41;10.87;;;5.97;;
8978;SDS011;4524;51.364;5.448;2022-10-04T06:51:23;9.93;;;5.97;;
8978;SDS011;4524;51.364;5.448;2022-10-04T06:54:08;10.40;;;6.13;;
8978;SDS011;4524;51.364;5.448;2022-10-04T06:56:57;8.27;;;5.80;;
8978;SDS011;4524;51.364;5.448;2022-10-04T06:59:47;10.90;;;5.90;;
8978;SDS011;4524;51.364;5.448;2022-10-04T07:02:25;9.30;;;6.83;;
8978;SDS011;4524;51.364;5.448;2022-10-04T07:04:59;7.10;;;5.60;;
8978;SDS011;4524;51.364;5.448;2022-10-04T07:07:34;11.10;;;5.77;;
8978;SDS011;4524;51.364;5.448;2022-10-04T07:10:12;7.10;;;5.80;;
8978;SDS011;4524;51.364;5.448;2022-10-04T07:12:49;11.57;;;7.07;;
8978;SDS011;4524;51.364;5.448;2022-10-04T07:15:26;9.47;;;6.10;;
8978;SDS011;4524;51.364;5.448;2022-10-04T07:17:58;7.03;;;5.83;;
8978;SDS011;4524;51.364;5.448;2022-10-04T07:20:33;10.03;;;5.87;;
8978;SDS011;4524;51.364;5.448;2022-10-04T07:23:04;11.20;;;6.40;;
8978;SDS011;4524;51.364;5.448;2022-10-04T07:25:35;11.90;;;6.07;;
8978;SDS011;4524;51.364;5.448;2022-10-04T07:28:11;11.80;;;6.13;;
8978;SDS011;4524;51.364;5.448;2022-10-04T07:31:02;10.93;;;6.23;;
8978;SDS011;4524;51.364;5.448;2022-10-04T07:33:43;8.97;;;6.30;;
8978;SDS011;4524;51.364;5.448;2022-10-04T07:36:16;9.23;;;5.93;;
8978;SDS011;4524;51.364;5.448;2022-10-04T07:38:49;10.43;;;6.60;;
8978;SDS011;4524;51.364;5.448;2022-10-04T07:41:21;10.30;;;6.00;;
8978;SDS011;4524;51.364;5.448;2022-10-04T07:43:56;11.87;;;6.20;;
8978;SDS011;4524;51.364;5.448;2022-10-04T07:46:36;11.80;;;6.00;;
8978;SDS011;4524;51.364;5.448;2022-10-04T07:49:12;9.10;;;6.10;;
8978;SDS011;4524;51.364;5.448;2022-10-04T07:51:47;10.37;;;5.80;;
8978;SDS011;4524;51.364;5.448;2022-10-04T07:54:31;10.03;;;6.53;;
8978;SDS011;4524;51.364;5.448;2022-10-04T07:57:07;9.37;;;5.53;;
8978;SDS011;4524;51.364;5.448;2022-10-04T07:59:44;11.97;;;5.90;;
8978;SDS011;4524;51.364;5.448;2022-10-04T08:02:24;8.10;;;5.73;;
8978;SDS011;4524;51.364;5.448;2022-10-04T08:05:05;9.23;;;5.80;;
8978;SDS011;4524;51.364;5.448;2022-10-04T08:07:51;10.33;;;6.00;;
8978;SDS011;4524;51.364;5.448;2022-10-04T08:10:44;8.07;;;6.17;;
8978;SDS011;4524;51.364;5.448;2022-10-04T08:13:25;10.23;;;5.20;;
8978;SDS011;4524;51.364;5.448;2022-10-04T08:16:00;6.20;;;5.30;;
8978;SDS011;4524;51.364;5.448;2022-10-04T08:18:36;8.10;;;5.53;;
8978;SDS011;4524;51.364;5.448;2022-10-04T08:21:12;8.13;;;5.30;;
8978;SDS011;4524;51.364;5.448;2022-10-04T08:23:47;7.40;;;5.40;;
8978;SDS011;4524;51.364;5.448;2022-10-04T08:26:37;10.33;;;5.77;;
8978;SDS011;4524;51.364;5.448;2022-10-04T08:29:18;8.47;;;5.53;;
8978;SDS011;4524;51.364;5.448;2022-10-04T08:32:12;10.93;;;5.70;;
8978;SDS011;4524;51.364;5.448;2022-10-04T08:34:53;7.13;;;4.80;;
8978;SDS011;4524;51.364;5.448;2022-10-04T08:37:49;8.13;;;4.90;;
8978;SDS011;4524;51.364;5.448;2022-10-04T08:47:17;6.07;;;4.70;;
8978;SDS011;4524;51.364;5.448;2022-10-04T08:50:18;7.97;;;4.47;;
8978;SDS011;4524;51.364;5.448;2022-10-04T08:56:23;5.73;;;3.90;;
8978;SDS011;4524;51.364;5.448;2022-10-04T09:02:33;7.33;;;4.63;;
8978;SDS011;4524;51.364;5.448;2022-10-04T09:05:45;6.50;;;3.67;;
8978;SDS011;4524;51.364;5.448;2022-10-04T09:08:41;5.90;;;4.47;;
8978;SDS011;4524;51.364;5.448;2022-10-04T09:11:50;10.90;;;4.37;;
8978;SDS011;4524;51.364;5.448;2022-10-04T09:14:43;7.20;;;3.87;;
8978;SDS011;4524;51.364;5.448;2022-10-04T09:17:29;6.93;;;3.70;;
8978;SDS011;4524;51.364;5.448;2022-10-04T09:20:15;6.80;;;4.00;;
8978;SDS011;4524;51.364;5.448;2022-10-04T09:23:08;7.83;;;3.90;;
8978;SDS011;4524;51.364;5.448;2022-10-04T09:25:51;8.90;;;4.10;;
8978;SDS011;4524;51.364;5.448;2022-10-04T09:28:57;8.67;;;3.73;;
8978;SDS011;4524;51.364;5.448;2022-10-04T09:31:47;6.40;;;3.97;;
8978;SDS011;4524;51.364;5.448;2022-10-04T09:40:42;9.83;;;4.47;;
8978;SDS011;4524;51.364;5.448;2022-10-04T09:43:40;7.40;;;4.60;;
8978;SDS011;4524;51.364;5.448;2022-10-04T09:46:40;10.77;;;4.87;;
8978;SDS011;4524;51.364;5.448;2022-10-04T09:49:29;6.97;;;4.10;;
8978;SDS011;4524;51.364;5.448;2022-10-04T09:52:18;7.57;;;4.40;;
8978;SDS011;4524;51.364;5.448;2022-10-04T09:54:59;10.17;;;4.40;;
8978;SDS011;4524;51.364;5.448;2022-10-04T09:57:40;6.83;;;3.77;;
8978;SDS011;4524;51.364;5.448;2022-10-04T10:00:20;8.17;;;4.47;;
8978;SDS011;4524;51.364;5.448;2022-10-04T10:09:14;6.67;;;4.27;;
8978;SDS011;4524;51.364;5.448;2022-10-04T10:15:32;5.67;;;4.27;;
8978;SDS011;4524;51.364;5.448;2022-10-04T10:18:12;7.67;;;4.23;;
8978;SDS011;4524;51.364;5.448;2022-10-04T10:20:52;6.57;;;4.27;;
8978;SDS011;4524;51.364;5.448;2022-10-04T10:23:45;6.27;;;4.63;;
8978;SDS011;4524;51.364;5.448;2022-10-04T10:29:29;6.87;;;4.43;;
8978;SDS011;4524;51.364;5.448;2022-10-04T10:32:11;9.33;;;4.70;;
8978;SDS011;4524;51.364;5.448;2022-10-04T10:34:55;6.33;;;4.00;;
8978;SDS011;4524;51.364;5.448;2022-10-04T10:37:38;8.67;;;4.00;;
8978;SDS011;4524;51.364;5.448;2022-10-04T10:40:26;10.13;;;4.10;;
8978;SDS011;4524;51.364;5.448;2022-10-04T10:43:04;6.23;;;4.30;;
8978;SDS011;4524;51.364;5.448;2022-10-04T10:45:49;6.30;;;4.27;;
8978;SDS011;4524;51.364;5.448;2022-10-04T10:48:36;8.37;;;4.50;;
8978;SDS011;4524;51.364;5.448;2022-10-04T10:51:27;10.83;;;3.83;;
8978;SDS011;4524;51.364;5.448;2022-10-04T10:54:16;7.47;;;4.00;;
8978;SDS011;4524;51.364;5.448;2022-10-04T10:57:14;8.40;;;3.60;;
8978;SDS011;4524;51.364;5.448;2022-10-04T11:00:01;4.70;;;3.37;;
8978;SDS011;4524;51.364;5.448;2022-10-04T11:09:23;6.90;;;4.47;;
8978;SDS011;4524;51.364;5.448;2022-10-04T11:15:08;6.37;;;3.53;;
8978;SDS011;4524;51.364;5.448;2022-10-04T11:21:09;7.30;;;4.03;;
8978;SDS011;4524;51.364;5.448;2022-10-04T11:24:06;7.93;;;4.33;;
8978;SDS011;4524;51.364;5.448;2022-10-04T11:30:06;4.17;;;3.50;;
8978;SDS011;4524;51.364;5.448;2022-10-04T11:32:45;5.37;;;3.80;;
8978;SDS011;4524;51.364;5.448;2022-10-04T11:35:56;7.10;;;4.10;;
8978;SDS011;4524;51.364;5.448;2022-10-04T11:38:46;6.10;;;3.90;;
8978;SDS011;4524;51.364;5.448;2022-10-04T11:41:32;5.43;;;3.60;;
8978;SDS011;4524;51.364;5.448;2022-10-04T11:47:17;6.37;;;3.80;;
8978;SDS011;4524;51.364;5.448;2022-10-04T11:50:02;6.17;;;3.60;;
8978;SDS011;4524;51.364;5.448;2022-10-04T11:55:56;6.13;;;3.50;;
8978;SDS011;4524;51.364;5.448;2022-10-04T11:58:43;6.00;;;3.27;;
8978;SDS011;4524;51.364;5.448;2022-10-04T12:01:38;4.37;;;3.27;;
8978;SDS011;4524;51.364;5.448;2022-10-04T12:04:38;5.57;;;3.40;;
8978;SDS011;4524;51.364;5.448;2022-10-04T12:07:32;7.27;;;3.67;;
8978;SDS011;4524;51.364;5.448;2022-10-04T12:10:13;5.57;;;2.87;;
8978;SDS011;4524;51.364;5.448;2022-10-04T12:12:57;5.10;;;3.00;;
8978;SDS011;4524;51.364;5.448;2022-10-04T12:15:49;4.23;;;2.83;;
8978;SDS011;4524;51.364;5.448;2022-10-04T12:18:39;6.20;;;3.17;;
8978;SDS011;4524;51.364;5.448;2022-10-04T12:21:29;7.17;;;3.37;;
8978;SDS011;4524;51.364;5.448;2022-10-04T12:24:08;5.30;;;3.33;;
8978;SDS011;4524;51.364;5.448;2022-10-04T12:27:12;3.07;;;2.77;;
8978;SDS011;4524;51.364;5.448;2022-10-04T12:32:55;6.03;;;3.00;;
8978;SDS011;4524;51.364;5.448;2022-10-04T12:35:35;6.03;;;3.40;;
8978;SDS011;4524;51.364;5.448;2022-10-04T12:38:31;3.80;;;2.70;;
8978;SDS011;4524;51.364;5.448;2022-10-04T12:41:15;3.80;;;2.80;;
8978;SDS011;4524;51.364;5.448;2022-10-04T12:43:57;3.03;;;2.70;;
8978;SDS011;4524;51.364;5.448;2022-10-04T12:46:37;4.57;;;3.20;;
8978;SDS011;4524;51.364;5.448;2022-10-04T12:49:20;3.30;;;3.00;;
8978;SDS011;4524;51.364;5.448;2022-10-04T12:51:56;4.20;;;2.77;;
8978;SDS011;4524;51.364;5.448;2022-10-04T12:54:31;5.20;;;3.07;;
8978;SDS011;4524;51.364;5.448;2022-10-04T12:57:07;4.67;;;3.00;;
8978;SDS011;4524;51.364;5.448;2022-10-04T12:59:56;4.47;;;2.57;;
8978;SDS011;4524;51.364;5.448;2022-10-04T13:02:34;3.83;;;3.00;;
8978;SDS011;4524;51.364;5.448;2022-10-04T13:05:19;4.33;;;2.80;;
8978;SDS011;4524;51.364;5.448;2022-10-04T13:07:58;3.53;;;2.60;;
8978;SDS011;4524;51.364;5.448;2022-10-04T13:10:41;4.10;;;2.70;;
8978;SDS011;4524;51.364;5.448;2022-10-04T13:16:34;3.47;;;2.70;;
8978;SDS011;4524;51.364;5.448;2022-10-04T13:19:32;3.30;;;2.77;;
8978;SDS011;4524;51.364;5.448;2022-10-04T13:22:09;5.93;;;3.00;;
8978;SDS011;4524;51.364;5.448;2022-10-04T13:25:15;2.77;;;2.57;;
8978;SDS011;4524;51.364;5.448;2022-10-04T13:27:56;3.30;;;2.57;;
8978;SDS011;4524;51.364;5.448;2022-10-04T13:30:31;3.90;;;2.80;;
8978;SDS011;4524;51.364;5.448;2022-10-04T13:33:11;3.37;;;2.50;;
8978;SDS011;4524;51.364;5.448;2022-10-04T13:35:52;3.97;;;2.80;;
8978;SDS011;4524;51.364;5.448;2022-10-04T13:38:37;4.37;;;2.77;;
8978;SDS011;4524;51.364;5.448;2022-10-04T13:41:38;7.17;;;3.43;;
8978;SDS011;4524;51.364;5.448;2022-10-04T13:44:22;3.57;;;2.90;;
8978;SDS011;4524;51.364;5.448;2022-10-04T13:47:12;6.00;;;3.10;;
8978;SDS011;4524;51.364;5.448;2022-10-04T13:49:57;4.73;;;3.03;;
8978;SDS011;4524;51.364;5.448;2022-10-04T13:52:46;3.93;;;3.17;;
8978;SDS011;4524;51.364;5.448;2022-10-04T13:55:40;4.00;;;3.00;;
8978;SDS011;4524;51.364;5.448;2022-10-04T13:58:33;4.93;;;3.17;;
8978;SDS011;4524;51.364;5.448;2022-10-04T14:04:22;7.27;;;3.13;;
8978;SDS011;4524;51.364;5.448;2022-10-04T14:10:28;4.47;;;2.80;;
8978;SDS011;4524;51.364;5.448;2022-10-04T14:13:28;4.90;;;2.67;;
8978;SDS011;4524;51.364;5.448;2022-10-04T14:19:30;4.03;;;2.53;;
8978;SDS011;4524;51.364;5.448;2022-10-04T14:22:49;3.50;;;2.77;;
8978;SDS011;4524;51.364;5.448;2022-10-04T14:28:38;4.43;;;2.60;;
8978;SDS011;4524;51.364;5.448;2022-10-04T14:31:28;4.33;;;2.80;;
8978;SDS011;4524;51.364;5.448;2022-10-04T14:34:33;4.27;;;2.90;;
8978;SDS011;4524;51.364;5.448;2022-10-04T14:40:26;3.57;;;2.70;;
8978;SDS011;4524;51.364;5.448;2022-10-04T14:43:22;5.60;;;3.00;;
8978;SDS011;4524;51.364;5.448;2022-10-04T14:46:16;3.17;;;2.70;;
8978;SDS011;4524;51.364;5.448;2022-10-04T14:48:52;4.63;;;2.70;;
8978;SDS011;4524;51.364;5.448;2022-10-04T14:51:34;2.97;;;2.60;;
8978;SDS011;4524;51.364;5.448;2022-10-04T14:54:14;4.67;;;2.20;;
8978;SDS011;4524;51.364;5.448;2022-10-04T14:56:55;5.10;;;2.67;;
8978;SDS011;4524;51.364;5.448;2022-10-04T14:59:34;4.70;;;2.87;;
8978;SDS011;4524;51.364;5.448;2022-10-04T15:02:19;4.40;;;2.77;;
8978;SDS011;4524;51.364;5.448;2022-10-04T15:05:11;6.30;;;4.03;;
8978;SDS011;4524;51.364;5.448;2022-10-04T15:08:08;4.23;;;2.70;;
8978;SDS011;4524;51.364;5.448;2022-10-04T15:10:53;4.70;;;2.83;;
8978;SDS011;4524;51.364;5.448;2022-10-04T15:13:27;4.30;;;3.00;;
8978;SDS011;4524;51.364;5.448;2022-10-04T15:16:07;6.47;;;3.30;;
8978;SDS011;4524;51.364;5.448;2022-10-04T15:21:46;2.70;;;2.50;;
8978;SDS011;4524;51.364;5.448;2022-10-04T15:24:26;4.27;;;3.30;;
8978;SDS011;4524;51.364;5.448;2022-10-04T15:30:07;4.57;;;3.30;;
8978;SDS011;4524;51.364;5.448;2022-10-04T15:32:41;7.13;;;3.30;;
8978;SDS011;4524;51.364;5.448;2022-10-04T15:35:17;3.50;;;2.57;;
8978;SDS011;4524;51.364;5.448;2022-10-04T15:37:52;3.40;;;2.77;;
8978;SDS011;4524;51.364;5.448;2022-10-04T15:40:27;5.57;;;2.83;;
8978;SDS011;4524;51.364;5.448;2022-10-04T15:43:16;4.93;;;3.00;;
8978;SDS011;4524;51.364;5.448;2022-10-04T15:49:03;4.73;;;3.10;;
8978;SDS011;4524;51.364;5.448;2022-10-04T15:57:48;7.67;;;3.17;;
8978;SDS011;4524;51.364;5.448;2022-10-04T16:00:39;5.77;;;3.73;;
8978;SDS011;4524;51.364;5.448;2022-10-04T16:03:19;3.97;;;2.60;;
8978;SDS011;4524;51.364;5.448;2022-10-04T16:05:59;5.80;;;3.33;;
8978;SDS011;4524;51.364;5.448;2022-10-04T16:08:37;5.60;;;3.03;;
8978;SDS011;4524;51.364;5.448;2022-10-04T16:11:24;3.30;;;2.70;;
8978;SDS011;4524;51.364;5.448;2022-10-04T16:14:03;3.30;;;2.47;;
8978;SDS011;4524;51.364;5.448;2022-10-04T16:17:01;4.43;;;2.97;;
8978;SDS011;4524;51.364;5.448;2022-10-04T16:20:01;9.07;;;3.30;;
8978;SDS011;4524;51.364;5.448;2022-10-04T16:25:48;4.70;;;3.10;;
8978;SDS011;4524;51.364;5.448;2022-10-04T16:28:20;4.17;;;3.17;;
8978;SDS011;4524;51.364;5.448;2022-10-04T16:31:12;5.07;;;2.83;;
8978;SDS011;4524;51.364;5.448;2022-10-04T16:33:50;4.43;;;3.20;;
8978;SDS011;4524;51.364;5.448;2022-10-04T16:36:22;4.70;;;3.50;;
8978;SDS011;4524;51.364;5.448;2022-10-04T16:38:58;4.87;;;3.27;;
8978;SDS011;4524;51.364;5.448;2022-10-04T16:41:53;4.97;;;3.00;;
8978;SDS011;4524;51.364;5.448;2022-10-04T16:44:31;6.07;;;3.33;;
8978;SDS011;4524;51.364;5.448;2022-10-04T16:47:10;5.13;;;3.50;;
8978;SDS011;4524;51.364;5.448;2022-10-04T16:49:49;4.97;;;3.50;;
8978;SDS011;4524;51.364;5.448;2022-10-04T16:52:25;5.47;;;3.60;;
8978;SDS011;4524;51.364;5.448;2022-10-04T16:55:23;6.53;;;4.03;;
8978;SDS011;4524;51.364;5.448;2022-10-04T17:07:47;6.07;;;4.40;;
8978;SDS011;4524;51.364;5.448;2022-10-04T17:10:28;6.83;;;4.37;;
8978;SDS011;4524;51.364;5.448;2022-10-04T17:13:05;7.03;;;4.90;;
8978;SDS011;4524;51.364;5.448;2022-10-04T17:15:47;7.00;;;4.20;;
8978;SDS011;4524;51.364;5.448;2022-10-04T17:18:27;6.77;;;4.17;;
8978;SDS011;4524;51.364;5.448;2022-10-04T17:21:02;5.73;;;4.30;;
8978;SDS011;4524;51.364;5.448;2022-10-04T17:23:57;5.77;;;4.23;;
8978;SDS011;4524;51.364;5.448;2022-10-04T17:26:47;5.63;;;4.03;;
8978;SDS011;4524;51.364;5.448;2022-10-04T17:29:34;9.43;;;4.60;;
8978;SDS011;4524;51.364;5.448;2022-10-04T17:32:12;9.93;;;4.70;;
8978;SDS011;4524;51.364;5.448;2022-10-04T17:34:52;8.37;;;4.70;;
8978;SDS011;4524;51.364;5.448;2022-10-04T17:37:36;7.67;;;5.07;;
8978;SDS011;4524;51.364;5.448;2022-10-04T17:40:22;7.70;;;5.03;;
8978;SDS011;4524;51.364;5.448;2022-10-04T17:43:01;6.97;;;4.67;;
8978;SDS011;4524;51.364;5.448;2022-10-04T17:45:41;5.50;;;4.60;;
8978;SDS011;4524;51.364;5.448;2022-10-04T17:48:21;6.17;;;5.00;;
8978;SDS011;4524;51.364;5.448;2022-10-04T17:51:10;6.47;;;4.80;;
8978;SDS011;4524;51.364;5.448;2022-10-04T17:54:13;7.57;;;4.77;;
8978;SDS011;4524;51.364;5.448;2022-10-04T17:57:11;6.07;;;4.67;;
8978;SDS011;4524;51.364;5.448;2022-10-04T17:59:45;7.00;;;5.00;;
8978;SDS011;4524;51.364;5.448;2022-10-04T18:02:16;7.97;;;5.03;;
8978;SDS011;4524;51.364;5.448;2022-10-04T18:04:49;8.37;;;4.83;;
8978;SDS011;4524;51.364;5.448;2022-10-04T18:07:22;7.40;;;5.00;;
8978;SDS011;4524;51.364;5.448;2022-10-04T18:09:53;6.50;;;5.17;;
8978;SDS011;4524;51.364;5.448;2022-10-04T18:12:25;7.37;;;5.30;;
8978;SDS011;4524;51.364;5.448;2022-10-04T18:14:57;9.77;;;5.67;;
8978;SDS011;4524;51.364;5.448;2022-10-04T18:17:30;6.83;;;5.47;;
8978;SDS011;4524;51.364;5.448;2022-10-04T18:20:15;6.90;;;5.20;;
8978;SDS011;4524;51.364;5.448;2022-10-04T18:22:57;14.07;;;6.30;;
8978;SDS011;4524;51.364;5.448;2022-10-04T18:25:27;8.43;;;5.73;;